createdAt,value
2019-02-04T00:03:29.026Z,4.63
2019-02-04T00:05:58.416Z,4.47
2019-02-04T00:08:40.787Z,3.70
2019-02-04T00:11:29.055Z,4.97
2019-02-04T00:16:51.773Z,4.87
2019-02-04T00:19:21.192Z,5.07
2019-02-04T00:21:50.476Z,4.33
2019-02-04T00:24:20.332Z,4.67
2019-02-04T00:26:51.513Z,5.10
2019-02-04T00:29:21.119Z,4.03
2019-02-04T00:31:50.397Z,4.90
2019-02-04T00:34:19.879Z,5.03
2019-02-04T00:36:49.176Z,4.80
2019-02-04T00:39:37.504Z,5.27
2019-02-04T00:42:07.338Z,3.87
2019-02-04T00:44:36.621Z,3.87
2019-02-04T00:47:06.241Z,4.13
2019-02-04T00:49:35.537Z,4.53
2019-02-04T00:52:05.429Z,4.67
2019-02-04T00:54:34.749Z,4.47
2019-02-04T00:57:04.279Z,4.67
2019-02-04T00:59:33.555Z,4.20
2019-02-04T01:02:03.233Z,4.87
2019-02-04T01:04:32.520Z,4.57
2019-02-04T01:07:02.232Z,3.43
2019-02-04T01:09:31.550Z,4.87
2019-02-04T01:12:19.898Z,3.80
2019-02-04T01:14:49.334Z,4.23
2019-02-04T01:17:18.627Z,3.73
2019-02-04T01:19:48.134Z,3.63
2019-02-04T01:22:17.410Z,3.60
2019-02-04T01:24:48.140Z,3.50
2019-02-04T01:27:17.778Z,3.97
2019-02-04T01:30:06.255Z,3.63
2019-02-04T01:32:35.811Z,3.40
2019-02-04T01:35:06.090Z,4.13
2019-02-04T01:37:54.451Z,4.20
2019-02-04T01:40:25.253Z,4.43
2019-02-04T01:42:55.146Z,4.00
2019-02-04T01:45:45.020Z,3.43
2019-02-04T01:48:14.311Z,4.23
2019-02-04T01:50:43.717Z,3.87
2019-02-04T01:53:12.991Z,3.90
2019-02-04T01:55:42.322Z,3.87
2019-02-04T01:58:11.656Z,3.77
2019-02-04T02:00:41.207Z,3.90
2019-02-04T02:03:10.484Z,3.70
2019-02-04T02:05:39.867Z,3.47
2019-02-04T02:08:09.172Z,3.23
2019-02-04T02:10:38.502Z,3.23
2019-02-04T02:13:08.121Z,3.40
2019-02-04T02:15:37.403Z,3.53
2019-02-04T02:18:06.887Z,3.43
2019-02-04T02:20:36.271Z,4.07
2019-02-04T02:23:05.779Z,3.73
2019-02-04T02:25:35.165Z,4.53
2019-02-04T02:28:25.483Z,3.80
2019-02-04T02:30:54.822Z,3.97
2019-02-04T02:33:24.144Z,3.90
2019-02-04T02:35:53.430Z,3.77
2019-02-04T02:38:24.480Z,3.80
2019-02-04T02:40:53.773Z,3.83
2019-02-04T02:43:42.127Z,3.87
2019-02-04T02:46:11.416Z,4.10
2019-02-04T02:48:59.754Z,4.23
2019-02-04T02:51:29.103Z,4.37
2019-02-04T02:53:58.414Z,4.07
2019-02-04T02:56:28.039Z,4.40
2019-02-04T02:58:57.319Z,4.13
2019-02-04T03:01:26.722Z,4.23
2019-02-04T03:03:55.994Z,4.37
2019-02-04T03:06:25.365Z,4.67
2019-02-04T03:08:54.843Z,3.57
2019-02-04T03:11:24.469Z,5.03
2019-02-04T03:13:53.789Z,3.97
2019-02-04T03:16:23.222Z,4.90
2019-02-04T03:18:52.520Z,3.83
2019-02-04T03:23:57.366Z,4.00
2019-02-04T03:26:26.691Z,4.13
2019-02-04T03:28:56.192Z,4.07
2019-02-04T03:34:19.846Z,3.50
2019-02-04T03:36:50.908Z,4.30
2019-02-04T03:42:08.929Z,4.03
2019-02-04T03:44:38.207Z,3.43
2019-02-04T03:47:09.473Z,2.87
2019-02-04T03:49:38.765Z,3.40
2019-02-04T03:52:08.299Z,3.43
2019-02-04T03:54:37.621Z,3.60
2019-02-04T03:57:07.212Z,3.53
2019-02-04T03:59:36.490Z,2.63
2019-02-04T04:02:06.082Z,4.03
2019-02-04T04:04:35.356Z,3.20
2019-02-04T04:07:05.034Z,3.20
2019-02-04T04:09:34.303Z,3.03
2019-02-04T04:14:52.270Z,3.40
2019-02-04T04:17:21.552Z,2.70
2019-02-04T04:19:51.324Z,3.07
2019-02-04T04:22:20.608Z,2.90
2019-02-04T04:27:39.526Z,2.70
2019-02-04T04:30:13.108Z,2.90
2019-02-04T04:32:42.387Z,2.77
2019-02-04T04:35:13.736Z,2.77
2019-02-04T04:37:43.028Z,2.43
2019-02-04T04:43:12.546Z,2.37
2019-02-04T04:45:41.841Z,3.30
2019-02-04T04:48:11.134Z,2.43
2019-02-04T04:50:59.471Z,2.30
2019-02-04T04:53:28.766Z,1.80
2019-02-04T04:55:58.106Z,2.40
2019-02-04T04:58:27.383Z,2.60
2019-02-04T05:00:56.793Z,3.47
2019-02-04T05:03:26.122Z,2.27
2019-02-04T05:05:55.404Z,2.60
2019-02-04T05:08:43.668Z,2.57
2019-02-04T05:11:13.137Z,2.80
2019-02-04T05:13:42.415Z,3.00
2019-02-04T05:16:11.920Z,2.90
2019-02-04T05:18:41.287Z,2.63
2019-02-04T05:21:29.682Z,2.80
2019-02-04T05:23:59.173Z,2.60
2019-02-04T05:26:28.452Z,2.57
2019-02-04T05:28:58.107Z,2.73
2019-02-04T05:31:27.382Z,2.43
2019-02-04T05:33:56.948Z,2.57
2019-02-04T05:36:45.678Z,2.30
2019-02-04T05:39:14.967Z,2.43
2019-02-04T05:41:44.314Z,2.33
2019-02-04T05:44:13.576Z,3.10
2019-02-04T05:46:43.151Z,2.83
2019-02-04T05:49:31.758Z,2.77
2019-02-04T05:52:02.793Z,2.57
2019-02-04T05:54:32.288Z,2.63
2019-02-04T05:57:01.570Z,2.43
2019-02-04T05:59:31.060Z,2.47
2019-02-04T06:02:00.345Z,2.00
2019-02-04T06:04:29.816Z,2.67
2019-02-04T06:07:17.990Z,1.93
2019-02-04T06:09:47.272Z,2.83
2019-02-04T06:12:35.642Z,2.33
2019-02-04T06:15:06.267Z,2.27
2019-02-04T06:17:35.556Z,2.10
2019-02-04T06:20:25.397Z,2.00
2019-02-04T06:23:16.915Z,2.13
2019-02-04T06:26:05.190Z,2.10
2019-02-04T06:28:46.614Z,2.10
2019-02-04T06:31:15.902Z,2.17
2019-02-04T06:33:45.254Z,1.47
2019-02-04T06:36:14.544Z,2.30
2019-02-04T06:38:45.951Z,1.90
2019-02-04T06:41:15.575Z,1.70
2019-02-04T06:43:44.898Z,2.10
2019-02-04T06:46:14.237Z,1.90
2019-02-04T06:48:43.610Z,2.10
2019-02-04T06:51:12.969Z,2.93
2019-02-04T06:53:42.269Z,1.50
2019-02-04T06:56:11.607Z,1.87
2019-02-04T06:58:40.903Z,1.77
2019-02-04T07:01:10.193Z,1.93
2019-02-04T07:03:39.483Z,1.93
2019-02-04T07:06:08.912Z,1.70
2019-02-04T07:08:38.237Z,1.30
2019-02-04T07:11:07.827Z,1.80
2019-02-04T07:13:56.057Z,2.10
2019-02-04T07:16:25.351Z,1.73
2019-02-04T07:18:54.719Z,2.40
2019-02-04T07:21:24.362Z,1.83
2019-02-04T07:23:53.660Z,1.63
2019-02-04T07:26:23.244Z,1.40
2019-02-04T07:28:52.535Z,1.73
2019-02-04T07:31:22.813Z,1.63
2019-02-04T07:33:52.634Z,1.20
2019-02-04T07:36:22.363Z,1.80
2019-02-04T07:38:52.205Z,1.90
2019-02-04T07:41:22.043Z,1.60
2019-02-04T07:43:52.310Z,1.40
2019-02-04T07:46:24.959Z,1.20
2019-02-04T07:48:53.601Z,1.20
2019-02-04T07:54:00.341Z,1.30
2019-02-04T07:56:30.647Z,1.12
2019-02-04T07:59:02.077Z,1.90
2019-02-04T08:01:51.352Z,1.13
2019-02-04T08:04:21.366Z,1.03
2019-02-04T08:06:53.241Z,1.57
2019-02-04T08:09:43.298Z,1.23
2019-02-04T08:12:12.846Z,0.80
2019-02-04T08:17:17.893Z,1.30
2019-02-04T08:20:06.132Z,1.03
2019-02-04T08:22:35.450Z,0.90
2019-02-04T08:25:26.380Z,1.60
2019-02-04T08:27:56.266Z,1.00
2019-02-04T08:30:44.554Z,1.00
2019-02-04T08:33:20.923Z,1.27
2019-02-04T08:36:09.185Z,0.83
2019-02-04T08:38:38.470Z,1.00
2019-02-04T08:41:07.948Z,1.10
2019-02-04T08:43:37.251Z,0.93
2019-02-04T08:46:25.521Z,0.70
2019-02-04T08:48:55.434Z,0.87
2019-02-04T08:51:24.725Z,0.83
2019-02-04T08:53:54.410Z,0.80
2019-02-04T08:56:23.705Z,0.90
2019-02-04T08:58:53.186Z,1.13
2019-02-04T09:01:24.226Z,0.90
2019-02-04T09:03:53.619Z,1.47
2019-02-04T09:06:23.036Z,0.90
2019-02-04T09:09:11.424Z,0.90
2019-02-04T09:11:41.019Z,1.10
2019-02-04T09:14:10.373Z,0.93
2019-02-04T09:16:39.795Z,1.20
2019-02-04T09:19:09.246Z,1.07
2019-02-04T09:21:57.619Z,0.70
2019-02-04T09:24:27.427Z,1.13
2019-02-04T09:26:56.710Z,0.87
2019-02-04T09:32:01.645Z,1.07
2019-02-04T09:34:30.969Z,0.87
2019-02-04T09:37:01.964Z,1.10
2019-02-04T09:39:50.135Z,0.80
2019-02-04T09:42:19.449Z,1.20
2019-02-04T09:44:48.759Z,0.83
2019-02-04T09:47:18.043Z,1.27
2019-02-04T09:49:47.373Z,1.00
2019-02-04T09:52:16.672Z,1.33
2019-02-04T09:57:21.205Z,1.20
2019-02-04T09:59:50.640Z,1.20
2019-02-04T10:02:40.548Z,0.90
2019-02-04T10:05:11.455Z,1.20
2019-02-04T10:07:40.729Z,1.27
2019-02-04T10:10:11.571Z,2.03
2019-02-04T10:12:41.052Z,1.30
2019-02-04T10:15:13.213Z,1.40
2019-02-04T10:17:42.719Z,1.60
2019-02-04T10:20:34.811Z,1.03
2019-02-04T10:23:05.089Z,1.47
2019-02-04T10:25:35.942Z,1.50
2019-02-04T10:28:24.263Z,1.40
2019-02-04T10:30:53.657Z,1.47
2019-02-04T10:33:22.966Z,1.30
2019-02-04T10:36:11.268Z,1.63
2019-02-04T10:38:40.699Z,1.40
2019-02-04T10:41:10.006Z,1.80
2019-02-04T10:43:39.282Z,1.47
2019-02-04T10:46:08.624Z,1.53
2019-02-04T10:48:37.916Z,1.37
2019-02-04T10:51:07.319Z,1.50
2019-02-04T10:53:36.547Z,1.20
2019-02-04T10:58:40.993Z,1.27
2019-02-04T11:04:05.576Z,1.70
2019-02-04T11:06:35.002Z,1.33
2019-02-04T11:12:01.120Z,1.33
2019-02-04T11:14:32.085Z,1.13
2019-02-04T11:17:13.344Z,0.97
2019-02-04T11:19:42.647Z,1.20
2019-02-04T11:22:12.036Z,1.00
2019-02-04T11:25:00.642Z,0.80
2019-02-04T11:27:30.001Z,1.10
2019-02-04T11:29:59.415Z,0.80
2019-02-04T11:32:47.740Z,0.80
2019-02-04T11:35:17.355Z,1.00
2019-02-04T11:37:46.680Z,0.80
2019-02-04T11:40:56.581Z,0.70
2019-02-04T11:43:26.017Z,0.70
2019-02-04T11:45:55.474Z,0.80
2019-02-04T11:48:24.896Z,0.60
2019-02-04T11:50:54.170Z,0.73
2019-02-04T11:53:32.325Z,0.70
2019-02-04T11:55:54.714Z,0.50
2019-02-04T11:58:24.020Z,0.80
2019-02-04T12:00:53.368Z,0.60
2019-02-04T12:03:23.560Z,0.50
2019-02-04T12:05:53.089Z,0.60
2019-02-04T12:08:22.504Z,0.50
2019-02-04T12:14:11.328Z,0.60
2019-02-04T12:16:40.906Z,0.60
2019-02-04T12:19:10.328Z,0.63
2019-02-04T12:21:40.041Z,0.60
2019-02-04T12:24:11.963Z,0.60
2019-02-04T12:26:41.986Z,0.53
2019-02-04T12:29:11.352Z,0.40
2019-02-04T12:31:40.635Z,0.50
2019-02-04T12:34:28.997Z,0.67
2019-02-04T12:36:58.564Z,0.50
2019-02-04T12:39:29.524Z,1.30
2019-02-04T12:41:59.058Z,1.40
2019-02-04T12:44:28.364Z,0.90
2019-02-04T12:46:57.798Z,0.93
2019-02-04T12:49:27.207Z,0.90
2019-02-04T12:55:04.676Z,0.53
2019-02-04T12:57:34.213Z,0.80
2019-02-04T13:03:19.724Z,1.00
2019-02-04T13:05:53.300Z,0.80
2019-02-04T13:08:23.131Z,1.17
2019-02-04T13:10:52.405Z,1.00
2019-02-04T13:16:18.343Z,1.30
2019-02-04T13:18:48.072Z,1.10
2019-02-04T13:21:17.350Z,1.43
2019-02-04T13:23:47.207Z,1.90
2019-02-04T13:26:16.478Z,1.60
2019-02-04T13:28:46.411Z,1.93
2019-02-04T13:31:15.682Z,2.20
2019-02-04T13:36:33.860Z,2.30
2019-02-04T13:41:53.445Z,2.73
2019-02-04T13:44:22.894Z,3.00
2019-02-04T13:46:52.172Z,3.10
2019-02-04T13:49:23.445Z,3.70
2019-02-04T13:51:57.491Z,4.37
2019-02-04T13:54:23.761Z,4.23
2019-02-04T13:56:53.117Z,5.27
2019-02-04T13:59:22.450Z,4.93
2019-02-04T14:01:51.748Z,5.07
2019-02-04T14:04:21.124Z,5.87
2019-02-04T14:06:50.440Z,6.03
2019-02-04T14:09:23.087Z,6.27
2019-02-04T14:12:11.350Z,6.63
2019-02-04T14:14:41.270Z,6.60
2019-02-04T14:17:32.580Z,7.07
2019-02-04T14:20:02.407Z,6.67
2019-02-04T14:25:43.232Z,7.60
2019-02-04T14:28:13.415Z,7.07
2019-02-04T14:30:43.794Z,7.87
2019-02-04T14:33:13.745Z,7.17
2019-02-04T14:35:45.949Z,7.90
2019-02-04T14:38:34.587Z,8.20
2019-02-04T14:41:23.455Z,8.98
2019-02-04T14:44:19.978Z,8.20
2019-02-04T14:47:14.469Z,8.70
2019-02-04T14:50:09.199Z,8.23
2019-02-04T14:53:16.552Z,8.77
2019-02-04T14:56:24.279Z,10.67
2019-02-04T14:59:32.587Z,9.50
2019-02-04T15:05:28.698Z,9.90
2019-02-04T15:08:37.053Z,10.93
2019-02-04T15:11:44.709Z,10.27
2019-02-04T15:14:52.074Z,10.07
2019-02-04T15:18:00.090Z,10.13
2019-02-04T15:21:07.542Z,9.60
2019-02-04T15:24:20.043Z,9.63
2019-02-04T15:27:27.393Z,9.50
2019-02-04T15:30:34.879Z,10.40
2019-02-04T15:33:26.825Z,10.20
2019-02-04T15:36:34.211Z,10.57
2019-02-04T15:39:44.877Z,11.17
2019-02-04T15:42:32.433Z,10.70
2019-02-04T15:45:36.495Z,13.27
2019-02-04T15:48:29.815Z,11.63
2019-02-04T15:51:23.518Z,12.43
2019-02-04T15:54:32.509Z,10.37
2019-02-04T15:57:01.868Z,9.57
2019-02-04T15:59:31.239Z,9.13
2019-02-04T16:02:00.565Z,11.40
2019-02-04T16:04:32.080Z,9.17
2019-02-04T16:07:01.411Z,9.70
2019-02-04T16:09:49.907Z,10.27
2019-02-04T16:12:21.336Z,10.27
2019-02-04T16:14:50.615Z,10.53
2019-02-04T16:17:20.095Z,8.93
2019-02-04T16:19:49.451Z,11.27
2019-02-04T16:22:19.426Z,8.70
2019-02-04T16:24:48.902Z,9.73
2019-02-04T16:27:18.345Z,10.27
2019-02-04T16:29:47.694Z,8.70
2019-02-04T16:32:17.672Z,9.50
2019-02-04T16:34:47.022Z,9.37
2019-02-04T16:37:16.565Z,9.70
2019-02-04T16:39:47.591Z,9.30
2019-02-04T16:42:16.909Z,8.33
2019-02-04T16:47:20.960Z,10.17
2019-02-04T16:49:50.402Z,9.80
2019-02-04T16:52:19.694Z,9.37
2019-02-04T16:54:49.239Z,8.77
2019-02-04T16:57:18.585Z,8.67
2019-02-04T16:59:48.122Z,8.73
2019-02-04T17:02:17.440Z,9.00
2019-02-04T17:04:47.044Z,8.23
2019-02-04T17:07:16.329Z,6.97
2019-02-04T17:10:04.704Z,7.17
2019-02-04T17:12:34.424Z,6.70
2019-02-04T17:15:03.851Z,8.00
2019-02-04T17:17:33.295Z,7.60
2019-02-04T17:23:06.252Z,7.13
2019-02-04T17:25:35.655Z,6.77
2019-02-04T17:28:46.128Z,7.27
2019-02-04T17:31:15.395Z,6.73
2019-02-04T17:33:44.879Z,7.20
2019-02-04T17:38:49.279Z,7.30
2019-02-04T17:41:19.079Z,5.87
2019-02-04T17:43:48.538Z,6.90
2019-02-04T17:46:18.235Z,7.13
2019-02-04T17:48:47.514Z,5.30
2019-02-04T17:51:17.094Z,6.47
2019-02-04T17:53:46.443Z,6.80
2019-02-04T17:56:16.161Z,6.87
2019-02-04T17:58:45.446Z,6.87
2019-02-04T18:01:15.394Z,7.17
2019-02-04T18:03:44.716Z,6.93
2019-02-04T18:06:14.269Z,6.23
2019-02-04T18:08:43.596Z,5.60
2019-02-04T18:11:13.729Z,6.90
2019-02-04T18:16:33.255Z,6.87
2019-02-04T18:19:03.019Z,6.43
2019-02-04T18:21:32.706Z,5.53
2019-02-04T18:24:02.137Z,6.37
2019-02-04T18:26:50.504Z,6.43
2019-02-04T18:29:19.800Z,6.33
2019-02-04T18:31:49.436Z,6.57
2019-02-04T18:34:18.766Z,5.97
2019-02-04T18:36:48.244Z,6.60
2019-02-04T18:39:19.287Z,6.63
2019-02-04T18:42:07.751Z,7.60
2019-02-04T18:44:56.297Z,6.03
2019-02-04T18:47:25.668Z,5.77
2019-02-04T18:49:54.972Z,6.47
2019-02-04T18:52:24.776Z,6.50
2019-02-04T18:54:54.048Z,5.77
2019-02-04T18:57:23.511Z,7.67
2019-02-04T18:59:52.826Z,6.60
2019-02-04T19:02:22.279Z,6.57
2019-02-04T19:04:51.619Z,6.10
2019-02-04T19:07:21.198Z,7.00
2019-02-04T19:10:09.493Z,5.30
2019-02-04T19:12:38.935Z,5.73
2019-02-04T19:15:15.167Z,6.10
2019-02-04T19:17:44.916Z,7.47
2019-02-04T19:23:31.607Z,7.70
2019-02-04T19:26:01.393Z,6.63
2019-02-04T19:28:30.709Z,6.07
2019-02-04T19:31:38.042Z,7.10
2019-02-04T19:34:07.515Z,7.20
2019-02-04T19:36:36.972Z,6.63
2019-02-04T19:42:20.737Z,6.07
2019-02-04T19:44:50.272Z,6.50
2019-02-04T19:47:19.690Z,6.87
2019-02-04T19:49:49.290Z,6.63
2019-02-04T19:52:18.596Z,6.23
2019-02-04T19:55:01.103Z,5.67
2019-02-04T19:57:33.515Z,5.97
2019-02-04T20:00:03.529Z,6.90
2019-02-04T20:02:33.447Z,6.03
2019-02-04T20:05:03.026Z,4.80
2019-02-04T20:07:32.740Z,5.90
2019-02-04T20:10:02.074Z,7.37
2019-02-04T20:12:31.580Z,7.43
2019-02-04T20:15:01.206Z,7.07
2019-02-04T20:17:30.549Z,6.83
2019-02-04T20:20:19.156Z,8.80
2019-02-04T20:23:07.714Z,6.30
2019-02-04T20:25:37.073Z,6.03
2019-02-04T20:28:08.404Z,7.43
2019-02-04T20:30:45.798Z,7.00
2019-02-04T20:33:10.866Z,7.50
2019-02-04T20:35:40.332Z,7.80
2019-02-04T20:38:09.833Z,7.50
2019-02-04T20:40:39.134Z,7.23
2019-02-04T20:43:09.016Z,7.47
2019-02-04T20:45:38.465Z,7.30
2019-02-04T20:48:10.271Z,6.33
2019-02-04T20:50:40.699Z,6.87
2019-02-04T20:53:29.234Z,6.23
2019-02-04T20:55:58.916Z,6.87
2019-02-04T20:58:28.415Z,6.47
2019-02-04T21:00:57.714Z,7.53
2019-02-04T21:03:27.493Z,6.33
2019-02-04T21:08:45.036Z,6.97
2019-02-04T21:11:14.389Z,7.27
2019-02-04T21:13:43.707Z,7.23
2019-02-04T21:16:13.120Z,6.70
2019-02-04T21:19:02.100Z,6.57
2019-02-04T21:21:31.399Z,8.10
2019-02-04T21:24:00.894Z,8.17
2019-02-04T21:26:30.264Z,6.97
2019-02-04T21:29:01.296Z,8.00
2019-02-04T21:31:30.584Z,8.70
2019-02-04T21:34:00.193Z,9.67
2019-02-04T21:36:29.538Z,7.03
2019-02-04T21:38:59.383Z,8.27
2019-02-04T21:41:47.949Z,8.53
2019-02-04T21:44:17.297Z,9.20
2019-02-04T21:46:46.806Z,9.63
2019-02-04T21:49:16.100Z,11.27
2019-02-04T21:51:45.532Z,10.73
2019-02-04T21:54:16.560Z,10.60
2019-02-04T21:56:45.836Z,10.80
2019-02-04T21:59:15.163Z,10.57
2019-02-04T22:02:03.431Z,10.30
2019-02-04T22:04:32.891Z,10.50
2019-02-04T22:07:02.179Z,9.90
2019-02-04T22:09:31.500Z,11.53
2019-02-04T22:12:00.813Z,9.97
2019-02-04T22:14:30.340Z,9.90
2019-02-04T22:16:59.640Z,10.23
2019-02-04T22:19:29.261Z,10.67
2019-02-04T22:21:58.600Z,9.70
2019-02-04T22:24:28.011Z,10.37
2019-02-04T22:26:57.321Z,10.83
2019-02-04T22:29:26.844Z,11.10
2019-02-04T22:31:56.125Z,11.30
2019-02-04T22:34:27.417Z,10.77
2019-02-04T22:36:56.725Z,10.27
2019-02-04T22:39:26.140Z,10.43
2019-02-04T22:41:55.441Z,9.90
2019-02-04T22:44:24.942Z,9.13
2019-02-04T22:46:54.221Z,10.23
2019-02-04T22:49:23.679Z,8.97
2019-02-04T22:51:54.692Z,9.93
2019-02-04T22:54:24.131Z,9.63
2019-02-04T22:56:53.475Z,10.43
2019-02-04T23:02:16.366Z,9.20
2019-02-04T23:04:45.974Z,9.47
2019-02-04T23:07:15.276Z,10.47
2019-02-04T23:09:44.801Z,8.70
2019-02-04T23:12:14.127Z,8.23
2019-02-04T23:14:45.202Z,8.53
2019-02-04T23:17:14.490Z,8.80
2019-02-04T23:19:43.992Z,8.37
2019-02-04T23:22:13.275Z,8.50
2019-02-04T23:24:42.856Z,8.60
2019-02-04T23:27:24.101Z,8.53
2019-02-04T23:29:53.422Z,8.13
2019-02-04T23:32:22.703Z,8.60
2019-02-04T23:34:52.206Z,8.60
2019-02-04T23:37:21.494Z,8.30
2019-02-04T23:39:51.353Z,8.90
2019-02-04T23:42:20.769Z,7.77
2019-02-04T23:44:50.537Z,7.30
2019-02-04T23:47:19.805Z,7.93
2019-02-04T23:49:49.455Z,8.17
2019-02-04T23:52:18.738Z,6.50
2019-02-04T23:54:48.382Z,7.00
2019-02-04T23:57:36.714Z,7.30
